createdAt,value
2022-11-20T00:00:24.744Z,42.10
2022-11-20T00:02:55.137Z,43.10
2022-11-20T00:05:26.202Z,40.50
2022-11-20T00:07:56.709Z,42.20
2022-11-20T00:10:28.092Z,39.60
2022-11-20T00:15:27.296Z,43.10
2022-11-20T00:17:57.623Z,44.60
2022-11-20T00:20:28.087Z,38.50
2022-11-20T00:22:58.419Z,39.70
2022-11-20T00:25:28.783Z,39.60
2022-11-20T00:27:59.190Z,41.00
2022-11-20T00:30:29.499Z,49.30
2022-11-20T00:33:01.243Z,45.40
2022-11-20T00:35:31.575Z,41.90
2022-11-20T00:38:01.875Z,45.10
2022-11-20T00:40:32.266Z,48.10
2022-11-20T00:43:02.616Z,45.50
2022-11-20T00:45:33.081Z,45.90
2022-11-20T00:48:03.637Z,33.40
2022-11-20T00:50:34.059Z,38.50
2022-11-20T00:53:04.270Z,40.50
2022-11-20T00:55:34.651Z,42.90
2022-11-20T00:58:07.126Z,36.10
2022-11-20T01:00:40.526Z,40.00
2022-11-20T01:03:10.816Z,36.90
2022-11-20T01:05:41.079Z,43.30
2022-11-20T01:08:11.686Z,41.60
2022-11-20T01:10:41.972Z,42.20
2022-11-20T01:13:30.299Z,40.80
2022-11-20T01:16:05.741Z,34.80
2022-11-20T01:18:36.657Z,40.70
2022-11-20T01:21:09.778Z,40.20
2022-11-20T01:23:42.324Z,35.10
2022-11-20T01:26:14.556Z,40.10
2022-11-20T01:28:45.597Z,44.90
2022-11-20T01:31:18.154Z,45.20
2022-11-20T01:33:50.404Z,41.10
2022-11-20T01:36:22.401Z,41.80
2022-11-20T01:38:55.011Z,39.50
2022-11-20T01:41:44.414Z,43.50
2022-11-20T01:44:17.307Z,31.40
2022-11-20T01:47:00.277Z,45.80
2022-11-20T01:49:39.664Z,41.00
2022-11-20T01:52:15.744Z,46.00
2022-11-20T01:54:50.713Z,40.50
2022-11-20T01:57:22.420Z,39.50
2022-11-20T01:59:57.620Z,40.30
2022-11-20T02:02:28.983Z,43.60
2022-11-20T02:07:33.727Z,41.50
2022-11-20T02:10:04.493Z,44.00
2022-11-20T02:12:54.654Z,41.60
2022-11-20T02:15:29.037Z,46.70
2022-11-20T02:18:00.964Z,34.30
2022-11-20T02:20:31.487Z,42.80
2022-11-20T02:23:07.114Z,44.90
2022-11-20T02:25:38.917Z,36.30
2022-11-20T02:28:09.300Z,39.10
2022-11-20T02:30:39.659Z,33.80
2022-11-20T02:33:10.085Z,46.00
2022-11-20T02:35:46.760Z,49.60
2022-11-20T02:38:17.769Z,42.80
2022-11-20T02:40:52.685Z,40.50
2022-11-20T02:43:25.812Z,33.40
2022-11-20T02:45:56.095Z,40.70
2022-11-20T02:48:29.109Z,37.30
2022-11-20T02:51:01.772Z,27.80
2022-11-20T02:53:31.984Z,35.70
2022-11-20T02:56:02.475Z,31.80
2022-11-20T02:58:33.195Z,30.20
2022-11-20T03:01:03.706Z,29.10
2022-11-20T03:03:34.219Z,38.10
2022-11-20T03:06:04.819Z,36.50
2022-11-20T03:08:35.553Z,41.00
2022-11-20T03:11:10.450Z,35.90
2022-11-20T03:13:41.073Z,33.90
2022-11-20T03:16:14.578Z,37.00
2022-11-20T03:18:45.626Z,39.30
2022-11-20T03:21:17.429Z,37.70
2022-11-20T03:23:47.845Z,33.40
2022-11-20T03:26:20.758Z,31.10
2022-11-20T03:28:52.773Z,35.30
2022-11-20T03:31:25.447Z,39.50
2022-11-20T03:33:56.099Z,40.30
2022-11-20T03:36:26.631Z,38.60
2022-11-20T03:38:58.179Z,38.70
2022-11-20T03:41:30.278Z,32.80
2022-11-20T03:44:01.776Z,37.80
2022-11-20T03:46:32.871Z,28.40
2022-11-20T03:49:03.353Z,34.90
2022-11-20T03:51:35.050Z,34.30
2022-11-20T03:54:07.910Z,33.60
2022-11-20T03:56:40.004Z,32.90
2022-11-20T03:59:11.912Z,32.60
2022-11-20T04:01:49.186Z,38.40
2022-11-20T04:04:20.030Z,34.70
2022-11-20T04:06:50.474Z,40.90
2022-11-20T04:09:21.175Z,37.10
2022-11-20T04:11:51.896Z,41.80
2022-11-20T04:14:22.154Z,51.70
2022-11-20T04:16:52.509Z,43.90
2022-11-20T04:19:23.322Z,43.80
2022-11-20T04:21:54.474Z,36.20
2022-11-20T04:24:24.735Z,33.90
2022-11-20T04:26:55.130Z,41.50
2022-11-20T04:29:25.539Z,38.00
2022-11-20T04:31:56.034Z,42.10
2022-11-20T04:34:26.367Z,39.00
2022-11-20T04:36:56.770Z,38.50
2022-11-20T04:39:27.043Z,50.50
2022-11-20T04:42:11.385Z,41.50
2022-11-20T04:44:41.833Z,45.50
2022-11-20T04:47:12.080Z,45.80
2022-11-20T04:49:42.805Z,47.40
2022-11-20T04:52:13.214Z,44.10
2022-11-20T04:54:43.475Z,45.40
2022-11-20T04:57:14.908Z,38.90
2022-11-20T04:59:45.593Z,49.10
2022-11-20T05:02:16.591Z,48.30
2022-11-20T05:04:47.107Z,45.50
2022-11-20T05:07:19.238Z,46.20
2022-11-20T05:09:49.713Z,45.20
2022-11-20T05:12:20.141Z,39.30
2022-11-20T05:14:50.556Z,34.10
2022-11-20T05:17:20.960Z,47.30
2022-11-20T05:19:53.242Z,47.90
2022-11-20T05:22:23.940Z,46.90
2022-11-20T05:24:54.275Z,41.60
2022-11-20T05:27:24.674Z,44.30
2022-11-20T05:29:54.964Z,49.20
2022-11-20T05:32:26.361Z,53.90
2022-11-20T05:37:25.669Z,45.50
2022-11-20T05:39:56.097Z,40.80
2022-11-20T05:42:32.494Z,47.50
2022-11-20T05:45:05.235Z,41.60
2022-11-20T05:47:36.758Z,42.60
2022-11-20T05:50:07.985Z,45.90
2022-11-20T05:52:38.398Z,48.80
2022-11-20T05:55:10.547Z,48.70
2022-11-20T05:57:40.856Z,42.40
2022-11-20T06:00:14.586Z,50.40
2022-11-20T06:02:45.036Z,47.80
2022-11-20T06:05:15.404Z,50.20
2022-11-20T06:07:45.734Z,45.30
2022-11-20T06:10:16.271Z,49.20
2022-11-20T06:12:46.657Z,44.70
2022-11-20T06:15:17.247Z,44.30
2022-11-20T06:17:47.540Z,54.90
2022-11-20T06:20:18.388Z,45.10
2022-11-20T06:22:48.712Z,42.00
2022-11-20T06:25:19.269Z,50.80
2022-11-20T06:27:49.585Z,45.20
2022-11-20T06:30:20.226Z,47.70
2022-11-20T06:32:50.755Z,49.10
2022-11-20T06:35:21.180Z,60.60
2022-11-20T06:37:51.539Z,51.30
2022-11-20T06:40:22.053Z,40.90
2022-11-20T06:42:52.521Z,50.20
2022-11-20T06:45:22.868Z,44.60
2022-11-20T06:47:53.322Z,41.60
2022-11-20T06:50:23.722Z,47.80
2022-11-20T06:52:54.036Z,51.10
2022-11-20T06:55:24.335Z,48.70
2022-11-20T06:57:56.095Z,42.30
2022-11-20T07:00:26.614Z,47.70
2022-11-20T07:02:57.026Z,48.10
2022-11-20T07:05:27.426Z,46.00
2022-11-20T07:07:59.384Z,62.10
2022-11-20T07:10:29.681Z,57.30
2022-11-20T07:13:00.618Z,41.80
2022-11-20T07:15:31.123Z,62.10
2022-11-20T07:18:03.535Z,49.80
2022-11-20T07:21:31.371Z,55.00
2022-11-20T07:23:56.139Z,58.30
2022-11-20T07:26:26.370Z,57.90
2022-11-20T07:28:56.701Z,59.40
2022-11-20T07:31:27.026Z,54.70
2022-11-20T07:33:57.324Z,44.70
2022-11-20T07:36:27.551Z,40.00
2022-11-20T07:38:57.956Z,57.20
2022-11-20T07:41:28.569Z,53.10
2022-11-20T07:43:59.142Z,122.40
2022-11-20T07:46:29.661Z,57.80
2022-11-20T07:49:00.229Z,52.80
2022-11-20T07:51:30.851Z,44.60
2022-11-20T07:54:01.280Z,55.10
2022-11-20T07:56:32.009Z,67.00
2022-11-20T07:59:02.605Z,62.60
2022-11-20T08:01:33.171Z,55.70
2022-11-20T08:04:04.044Z,52.80
2022-11-20T08:06:34.929Z,55.00
2022-11-20T08:09:05.552Z,52.70
2022-11-20T08:11:53.926Z,54.30
2022-11-20T08:14:24.675Z,65.10
2022-11-20T08:16:55.266Z,60.60
2022-11-20T08:19:25.787Z,60.10
2022-11-20T08:21:57.057Z,71.50
2022-11-20T08:27:00.798Z,52.90
2022-11-20T08:29:31.394Z,50.70
2022-11-20T08:32:02.396Z,56.70
2022-11-20T08:34:32.925Z,51.00
2022-11-20T08:37:05.937Z,59.80
2022-11-20T08:39:36.519Z,63.70
2022-11-20T08:42:10.406Z,57.20
2022-11-20T08:44:40.986Z,55.40
2022-11-20T08:47:12.178Z,56.60
2022-11-20T08:49:42.648Z,61.50
2022-11-20T08:52:13.643Z,66.30
2022-11-20T08:54:44.387Z,62.50
2022-11-20T08:57:14.912Z,71.50
2022-11-20T09:00:04.873Z,75.60
2022-11-20T09:02:36.436Z,71.80
2022-11-20T09:05:08.332Z,69.80
2022-11-20T09:07:39.113Z,59.60
2022-11-20T09:10:23.748Z,72.90
2022-11-20T09:12:56.488Z,68.40
2022-11-20T09:15:28.107Z,73.40
2022-11-20T09:18:00.314Z,68.40
2022-11-20T09:20:32.146Z,84.20
2022-11-20T09:23:03.369Z,96.20
2022-11-20T09:25:33.974Z,83.60
2022-11-20T09:28:04.556Z,74.60
2022-11-20T09:30:35.342Z,81.90
2022-11-20T09:33:08.393Z,76.00
2022-11-20T09:35:38.967Z,73.40
2022-11-20T09:38:11.628Z,76.70
2022-11-20T09:40:47.744Z,69.20
2022-11-20T09:43:31.075Z,82.80
2022-11-20T09:46:19.247Z,74.30
2022-11-20T09:49:05.663Z,84.20
2022-11-20T09:51:45.659Z,73.90
2022-11-20T09:54:20.553Z,87.50
2022-11-20T09:56:55.743Z,84.80
2022-11-20T09:59:37.578Z,80.30
2022-11-20T10:02:21.903Z,71.80
2022-11-20T10:04:58.101Z,83.20
2022-11-20T10:07:38.674Z,118.20
2022-11-20T10:10:18.926Z,126.00
2022-11-20T10:13:09.080Z,100.40
2022-11-20T10:15:50.319Z,104.20
2022-11-20T10:18:33.130Z,101.00
2022-11-20T10:21:14.413Z,76.90
2022-11-20T10:24:11.926Z,76.00
2022-11-20T10:26:53.568Z,78.30
2022-11-20T10:29:31.624Z,66.80
2022-11-20T10:32:09.975Z,75.60
2022-11-20T10:34:52.917Z,76.30
2022-11-20T10:37:27.386Z,80.30
2022-11-20T10:40:03.970Z,83.00
2022-11-20T10:42:40.114Z,88.00
2022-11-20T10:45:34.938Z,75.40
2022-11-20T10:48:17.565Z,77.70
2022-11-20T10:51:02.006Z,94.00
2022-11-20T10:53:47.666Z,82.10
2022-11-20T10:56:24.861Z,95.50
2022-11-20T10:59:06.709Z,99.20
2022-11-20T11:01:44.224Z,98.00
2022-11-20T11:04:29.089Z,86.90
2022-11-20T11:07:07.214Z,85.30
2022-11-20T11:09:42.550Z,91.30
2022-11-20T11:12:14.016Z,95.30
2022-11-20T11:17:31.671Z,89.80
2022-11-20T11:20:06.772Z,77.80
2022-11-20T11:22:46.892Z,72.90
2022-11-20T11:25:27.294Z,80.40
2022-11-20T11:28:00.355Z,94.10
2022-11-20T11:30:43.780Z,74.50
2022-11-20T11:33:21.677Z,78.50
2022-11-20T11:35:55.106Z,100.50
2022-11-20T11:38:35.381Z,94.10
2022-11-20T11:41:08.475Z,78.20
2022-11-20T11:43:57.500Z,83.00
2022-11-20T11:46:35.673Z,103.10
2022-11-20T11:49:20.080Z,100.30
2022-11-20T11:52:08.571Z,89.00
2022-11-20T11:54:45.523Z,77.90
2022-11-20T11:57:25.918Z,86.70
2022-11-20T12:00:06.798Z,66.50
2022-11-20T12:02:43.403Z,101.90
2022-11-20T12:05:24.019Z,89.70
2022-11-20T12:08:00.340Z,97.40
2022-11-20T12:10:45.737Z,101.00
2022-11-20T12:13:28.926Z,92.00
2022-11-20T12:16:00.835Z,162.20
2022-11-20T12:18:33.392Z,115.80
2022-11-20T12:21:20.222Z,107.90
2022-11-20T12:24:12.302Z,145.00
2022-11-20T12:26:55.387Z,104.50
2022-11-20T12:29:39.700Z,93.10
2022-11-20T12:32:45.770Z,95.20
2022-11-20T12:35:34.233Z,83.60
2022-11-20T12:38:24.853Z,85.20
2022-11-20T12:41:05.298Z,80.60
2022-11-20T12:43:58.732Z,84.10
2022-11-20T12:46:38.360Z,93.40
2022-11-20T12:49:34.770Z,99.70
2022-11-20T12:52:30.222Z,82.60
2022-11-20T12:55:22.807Z,89.70
2022-11-20T12:58:00.728Z,87.30
2022-11-20T13:00:34.460Z,96.20
2022-11-20T13:03:27.429Z,121.30
2022-11-20T13:06:13.080Z,101.90
2022-11-20T13:08:50.109Z,100.30
2022-11-20T13:11:27.276Z,97.50
2022-11-20T13:14:14.722Z,105.20
2022-11-20T13:16:55.117Z,102.30
2022-11-20T13:19:26.222Z,109.90
2022-11-20T13:21:56.997Z,90.00
2022-11-20T13:24:31.211Z,115.50
2022-11-20T13:27:22.543Z,100.30
2022-11-20T13:30:14.575Z,110.50
2022-11-20T13:32:54.996Z,98.10
2022-11-20T13:35:34.693Z,109.80
2022-11-20T13:38:09.157Z,93.20
2022-11-20T13:40:52.741Z,108.40
2022-11-20T13:43:29.754Z,107.90
2022-11-20T13:46:05.302Z,99.40
2022-11-20T13:48:41.595Z,100.40
2022-11-20T13:51:17.903Z,93.20
2022-11-20T13:54:22.008Z,98.70
2022-11-20T13:57:04.840Z,80.70
2022-11-20T13:59:50.181Z,63.00
2022-11-20T14:02:23.777Z,115.90
2022-11-20T14:04:58.795Z,69.20
2022-11-20T14:07:34.524Z,70.00
2022-11-20T14:10:05.591Z,71.70
2022-11-20T14:12:37.974Z,83.20
2022-11-20T14:15:22.659Z,69.80
2022-11-20T14:17:53.544Z,75.40
2022-11-20T14:20:26.390Z,73.60
2022-11-20T14:22:57.639Z,68.80
2022-11-20T14:25:31.534Z,73.20
2022-11-20T14:28:04.555Z,66.70
2022-11-20T14:30:45.394Z,72.30
2022-11-20T14:33:17.505Z,41.00
2022-11-20T14:35:51.553Z,48.30
2022-11-20T14:38:24.565Z,47.30
2022-11-20T14:40:55.488Z,36.10
2022-11-20T14:43:28.771Z,31.20
2022-11-20T14:46:05.296Z,23.90
2022-11-20T14:48:40.562Z,19.00
2022-11-20T14:51:12.860Z,19.90
2022-11-20T14:53:43.672Z,17.00
2022-11-20T14:56:14.311Z,19.10
2022-11-20T14:58:45.146Z,18.40
2022-11-20T15:01:27.428Z,15.60
2022-11-20T15:04:04.274Z,15.90
2022-11-20T15:06:35.174Z,19.30
2022-11-20T15:09:07.196Z,18.70
2022-11-20T15:11:39.087Z,15.20
2022-11-20T15:14:11.748Z,18.80
2022-11-20T15:16:42.966Z,17.60
2022-11-20T15:19:22.722Z,25.00
2022-11-20T15:21:53.278Z,17.60
2022-11-20T15:24:23.977Z,15.00
2022-11-20T15:26:54.611Z,20.90
2022-11-20T15:29:26.875Z,17.70
2022-11-20T15:31:57.467Z,17.60
2022-11-20T15:34:30.294Z,19.20
2022-11-20T15:37:00.838Z,23.50
2022-11-20T15:39:31.336Z,23.80
2022-11-20T15:42:01.855Z,18.50
2022-11-20T15:44:32.327Z,23.80
2022-11-20T15:47:02.987Z,20.20
2022-11-20T15:49:33.464Z,26.90
2022-11-20T15:52:04.052Z,27.10
2022-11-20T15:54:34.587Z,23.50
2022-11-20T15:57:05.072Z,28.80
2022-11-20T15:59:37.861Z,30.60
2022-11-20T16:02:18.702Z,26.20
2022-11-20T16:04:49.811Z,22.00
2022-11-20T16:07:20.313Z,20.60
2022-11-20T16:09:50.789Z,18.50
2022-11-20T16:12:35.375Z,17.70
2022-11-20T16:15:24.391Z,19.20
2022-11-20T16:17:54.857Z,25.60
2022-11-20T16:20:25.680Z,19.00
2022-11-20T16:22:56.347Z,19.40
2022-11-20T16:25:28.841Z,26.00
2022-11-20T16:27:59.646Z,21.40
2022-11-20T16:30:30.303Z,21.00
2022-11-20T16:33:01.002Z,19.10
2022-11-20T16:35:43.375Z,17.90
2022-11-20T16:38:14.187Z,19.50
2022-11-20T16:40:44.594Z,20.40
2022-11-20T16:43:17.154Z,20.90
2022-11-20T16:45:47.858Z,18.20
2022-11-20T16:48:20.806Z,19.50
2022-11-20T16:50:53.483Z,20.10
2022-11-20T16:53:24.785Z,21.20
2022-11-20T16:55:55.451Z,19.60
2022-11-20T16:58:26.001Z,19.90
2022-11-20T17:00:56.670Z,18.80
2022-11-20T17:03:27.280Z,19.70
2022-11-20T17:05:57.895Z,28.60
2022-11-20T17:08:31.202Z,27.20
2022-11-20T17:11:07.677Z,40.40
2022-11-20T17:13:40.106Z,26.00
2022-11-20T17:16:13.760Z,18.80
2022-11-20T17:18:45.182Z,23.10
2022-11-20T17:23:46.417Z,24.80
2022-11-20T17:26:18.503Z,27.30
2022-11-20T17:28:54.442Z,21.10
2022-11-20T17:31:25.028Z,20.90
2022-11-20T17:33:55.723Z,18.00
2022-11-20T17:36:26.451Z,29.30
2022-11-20T17:38:57.214Z,23.60
2022-11-20T17:41:29.340Z,27.60
2022-11-20T17:44:02.305Z,20.70
2022-11-20T17:46:35.276Z,24.40
2022-11-20T17:49:06.037Z,16.80
2022-11-20T17:51:37.376Z,18.70
2022-11-20T17:54:08.839Z,17.40
2022-11-20T17:59:25.904Z,20.40
2022-11-20T18:02:00.883Z,22.70
2022-11-20T18:04:34.120Z,18.80
2022-11-20T18:07:04.858Z,19.00
2022-11-20T18:09:35.641Z,18.20
2022-11-20T18:12:06.933Z,25.00
2022-11-20T18:14:37.650Z,16.00
2022-11-20T18:17:10.390Z,17.70
2022-11-20T18:19:55.676Z,18.70
2022-11-20T18:22:33.375Z,24.00
2022-11-20T18:25:04.434Z,13.60
2022-11-20T18:27:34.992Z,14.70
2022-11-20T18:30:06.132Z,16.80
2022-11-20T18:32:37.287Z,13.70
2022-11-20T18:35:09.923Z,16.50
2022-11-20T18:37:40.813Z,17.80
2022-11-20T18:40:14.127Z,13.60
2022-11-20T18:43:02.378Z,14.00
2022-11-20T18:45:32.965Z,15.50
2022-11-20T18:48:03.572Z,11.40
2022-11-20T18:50:34.179Z,13.50
2022-11-20T18:53:04.730Z,11.10
2022-11-20T18:55:36.849Z,13.90
2022-11-20T18:58:07.591Z,11.50
2022-11-20T19:00:37.957Z,16.00
2022-11-20T19:03:08.802Z,13.40
2022-11-20T19:05:40.120Z,11.10
2022-11-20T19:10:39.898Z,10.10
2022-11-20T19:13:10.937Z,10.50
2022-11-20T19:15:41.558Z,12.10
2022-11-20T19:18:12.306Z,13.30
2022-11-20T19:20:42.830Z,8.30
2022-11-20T19:23:13.558Z,11.50
2022-11-20T19:25:44.269Z,9.40
2022-11-20T19:28:15.790Z,12.90
2022-11-20T19:30:46.424Z,9.00
2022-11-20T19:33:17.198Z,11.60
2022-11-20T19:35:47.933Z,10.40
2022-11-20T19:38:18.612Z,10.70
2022-11-20T19:40:49.236Z,14.90
2022-11-20T19:43:20.208Z,9.80
2022-11-20T19:45:50.925Z,14.00
2022-11-20T19:48:21.440Z,9.90
2022-11-20T19:50:52.625Z,12.00
2022-11-20T19:53:23.528Z,8.10
2022-11-20T19:56:03.313Z,10.40
2022-11-20T19:58:34.167Z,12.80
2022-11-20T20:01:10.634Z,11.90
2022-11-20T20:03:41.919Z,16.30
2022-11-20T20:06:14.661Z,9.30
2022-11-20T20:08:46.036Z,10.20
2022-11-20T20:11:17.987Z,12.90
2022-11-20T20:13:49.324Z,11.70
2022-11-20T20:18:50.349Z,9.50
2022-11-20T20:21:20.972Z,10.10
2022-11-20T20:23:55.478Z,17.30
2022-11-20T20:26:27.474Z,14.30
2022-11-20T20:28:58.162Z,14.00
2022-11-20T20:31:30.292Z,12.60
2022-11-20T20:34:01.053Z,11.00
2022-11-20T20:36:31.873Z,11.20
2022-11-20T20:39:03.395Z,10.60
2022-11-20T20:44:21.065Z,13.60
2022-11-20T20:46:54.163Z,9.40
2022-11-20T20:49:24.714Z,11.70
2022-11-20T20:51:55.609Z,12.30
2022-11-20T20:54:28.360Z,10.00
2022-11-20T20:57:02.370Z,12.30
2022-11-20T20:59:32.799Z,10.80
2022-11-20T21:02:03.357Z,12.20
2022-11-20T21:04:33.955Z,9.10
2022-11-20T21:07:04.542Z,12.10
2022-11-20T21:09:35.090Z,10.20
2022-11-20T21:12:06.172Z,14.40
2022-11-20T21:14:36.863Z,11.60
2022-11-20T21:17:10.857Z,15.40
2022-11-20T21:19:45.728Z,12.10
2022-11-20T21:22:16.337Z,11.30
2022-11-20T21:24:46.870Z,13.90
2022-11-20T21:27:17.204Z,10.80
2022-11-20T21:29:47.776Z,16.80
2022-11-20T21:32:18.478Z,12.70
2022-11-20T21:34:49.201Z,14.00
2022-11-20T21:37:19.889Z,12.00
2022-11-20T21:39:52.020Z,14.10
2022-11-20T21:42:22.670Z,14.30
2022-11-20T21:44:53.076Z,12.20
2022-11-20T21:47:24.222Z,10.70
2022-11-20T21:49:54.759Z,9.20
2022-11-20T21:52:28.043Z,13.20
2022-11-20T21:54:58.517Z,11.20
2022-11-20T21:57:29.238Z,9.60
2022-11-20T21:59:59.915Z,11.90
2022-11-20T22:02:30.345Z,10.90
2022-11-20T22:05:00.643Z,8.90
2022-11-20T22:07:31.059Z,11.90
2022-11-20T22:10:01.556Z,11.10
2022-11-20T22:12:31.936Z,13.50
2022-11-20T22:15:02.410Z,13.60
2022-11-20T22:17:52.565Z,9.40
2022-11-20T22:20:24.803Z,8.90
2022-11-20T22:22:55.300Z,13.00
2022-11-20T22:25:25.839Z,12.60
2022-11-20T22:27:56.301Z,13.20
2022-11-20T22:30:27.138Z,12.40
2022-11-20T22:32:57.486Z,13.10
2022-11-20T22:35:27.800Z,10.60
2022-11-20T22:37:58.183Z,12.50
2022-11-20T22:40:28.641Z,12.00
2022-11-20T22:42:59.133Z,10.90
2022-11-20T22:45:29.565Z,10.80
2022-11-20T22:47:59.995Z,11.60
2022-11-20T22:50:30.385Z,10.40
2022-11-20T22:53:00.813Z,12.30
2022-11-20T22:55:33.396Z,8.70
2022-11-20T22:58:03.903Z,12.00
2022-11-20T23:00:34.991Z,14.40
2022-11-20T23:03:05.455Z,8.40
2022-11-20T23:05:35.959Z,11.20
2022-11-20T23:08:06.753Z,10.70
2022-11-20T23:10:37.234Z,12.90
2022-11-20T23:13:07.661Z,13.30
2022-11-20T23:15:38.221Z,12.30
2022-11-20T23:18:08.674Z,12.10
2022-11-20T23:20:39.333Z,11.10
2022-11-20T23:23:09.655Z,9.90
2022-11-20T23:25:40.071Z,12.10
2022-11-20T23:28:10.389Z,10.20
2022-11-20T23:30:40.848Z,11.30
2022-11-20T23:33:11.291Z,10.80
2022-11-20T23:35:42.161Z,10.10
2022-11-20T23:38:12.555Z,9.80
2022-11-20T23:40:42.977Z,6.20
2022-11-20T23:43:16.274Z,8.10
2022-11-20T23:45:48.330Z,14.50
2022-11-20T23:48:19.300Z,12.00
2022-11-20T23:50:50.357Z,9.50
2022-11-20T23:53:22.004Z,10.40
2022-11-20T23:55:53.997Z,11.20
2022-11-20T23:58:25.836Z,11.40
